Haifa, Israel

09:12 AM IST on decembrie 20, 2014 (GMT +0200)
Haifa | Change Station
CLOSE
Current Station
Staţie meteo personală
Location: Haifa, -
Elevation: 676 ft
Nearby Weather Stations

Elev 676 ft 32.81 °N, 34.99 °E | Updated 7 minutes ago

Light Rain
Ploaie uşoară
58.6 °F
Feels Like 58.6 °F
N
2.0
Vânt variabil Vânt from vest
Gusts 3.0 mph

astăzi
High -- | Low -- °F
--% Chance of Precip.
Ieri
High -- | Low -- °F
Precip. -- inch
6:37 AM 4:37 PM
Semilună în descreştere, 4% visible
Presiunea 30.15 inch
Vizibilitatea 5.0 mile
Nori Nori risipiţi 2500 ft
Punctul de rouă 56 °F
Umiditatea 90%
Precipitaţii 0.11 inch
Adâncimea zăpezii Not available.
UV 0.0 out of 12
Pollen Not available.
Calitatea aerului Not available.
Flu Activity Not available.
METAR LLHA 200650Z 15004KT 8000 -RA SCT025 14/12 Q1021 RERA

More Conditions Fewer Conditions

Presiunea 30.15 inch
Vizibilitatea 5.0 mile
Nori Nori risipiţi 2500 ft
Punctul de rouă 56 °F
Umiditatea 90%
Precipitaţii 0.11 inch
Adâncimea zăpezii Not available.
UV 0.0 out of 12
Pollen Not available.
Calitatea aerului Not available.
Flu Activity Not available.
METAR LLHA 200650Z 15004KT 8000 -RA SCT025 14/12 Q1021 RERA

More Conditions Fewer Conditions

10-Day Weather Forecast

Almanac

Astronomie

Dec. 20, 2014 Răsărit Apus
Timpul Actual
Crepusculul Civil
Crepusculul nautic
Răsărit Astronomic
Luna
Durata zilei lumină
Lungimea zilei
Tomorrow will be .
, % of the Moon is Illuminated

Extremele de azi

Country Highs Country Lows

Community

WunderPhotos

Upload Photos

1,779,146 photos uploaded!

WunderBlogs® & News

Nearby

Calitatea aerului

  Calitatea aerului Index de calitate a aerului Poluat
Not available.

Adâncimea zapezii

Station Depth Elevation

Earthquake Activity

Oraş Distance Mag. Time & Date
Minimum magnitude displayed is 2.5.

Coastal Water Temperatures

Locul Temperatura

Nearby Weather Stations